sensor_id;sensor_type;location;lat;lon;timestamp;temperature;humidity
18577;DHT22;9418;52.694;13.294;2022-08-18T00:01:40;23.10;99.90
18577;DHT22;9418;52.694;13.294;2022-08-18T00:04:08;23.10;99.90
18577;DHT22;9418;52.694;13.294;2022-08-18T00:06:35;23.10;99.90
18577;DHT22;9418;52.694;13.294;2022-08-18T00:09:05;23.00;99.90
18577;DHT22;9418;52.694;13.294;2022-08-18T00:11:34;23.00;99.90
18577;DHT22;9418;52.694;13.294;2022-08-18T00:14:01;22.90;99.90
18577;DHT22;9418;52.694;13.294;2022-08-18T00:16:28;22.90;99.90
18577;DHT22;9418;52.694;13.294;2022-08-18T00:18:55;22.80;99.90
18577;DHT22;9418;52.694;13.294;2022-08-18T00:21:22;22.80;99.90
18577;DHT22;9418;52.694;13.294;2022-08-18T00:23:49;22.80;99.90
18577;DHT22;9418;52.694;13.294;2022-08-18T00:26:15;22.70;99.90
18577;DHT22;9418;52.694;13.294;2022-08-18T00:28:42;22.70;99.90
18577;DHT22;9418;52.694;13.294;2022-08-18T00:31:09;22.70;99.90
18577;DHT22;9418;52.694;13.294;2022-08-18T00:33:35;22.70;99.90
18577;DHT22;9418;52.694;13.294;2022-08-18T00:36:04;22.60;99.90
18577;DHT22;9418;52.694;13.294;2022-08-18T00:38:30;22.60;99.90
18577;DHT22;9418;52.694;13.294;2022-08-18T00:40:57;22.60;99.90
18577;DHT22;9418;52.694;13.294;2022-08-18T00:43:28;22.50;99.90
18577;DHT22;9418;52.694;13.294;2022-08-18T00:45:57;22.50;99.90
18577;DHT22;9418;52.694;13.294;2022-08-18T00:48:25;22.50;99.90
18577;DHT22;9418;52.694;13.294;2022-08-18T00:50:53;22.50;99.90
18577;DHT22;9418;52.694;13.294;2022-08-18T00:53:25;22.50;99.90
18577;DHT22;9418;52.694;13.294;2022-08-18T00:55:54;22.40;99.90
18577;DHT22;9418;52.694;13.294;2022-08-18T00:58:27;22.30;99.90
18577;DHT22;9418;52.694;13.294;2022-08-18T01:00:55;22.30;99.90
18577;DHT22;9418;52.694;13.294;2022-08-18T01:03:22;22.30;99.90
18577;DHT22;9418;52.694;13.294;2022-08-18T01:05:54;22.20;99.90
18577;DHT22;9418;52.694;13.294;2022-08-18T01:08:23;22.20;99.90
18577;DHT22;9418;52.694;13.294;2022-08-18T01:10:50;22.10;99.90
18577;DHT22;9418;52.694;13.294;2022-08-18T01:13:18;22.10;99.90
18577;DHT22;9418;52.694;13.294;2022-08-18T01:15:45;22.00;99.90
18577;DHT22;9418;52.694;13.294;2022-08-18T01:18:13;22.00;99.90
18577;DHT22;9418;52.694;13.294;2022-08-18T01:21:04;21.90;99.90
18577;DHT22;9418;52.694;13.294;2022-08-18T01:23:53;21.80;99.90
18577;DHT22;9418;52.694;13.294;2022-08-18T01:26:22;21.80;99.90
18577;DHT22;9418;52.694;13.294;2022-08-18T01:28:48;21.70;99.90
18577;DHT22;9418;52.694;13.294;2022-08-18T01:31:32;21.60;99.90
18577;DHT22;9418;52.694;13.294;2022-08-18T01:34:02;21.50;99.90
18577;DHT22;9418;52.694;13.294;2022-08-18T01:36:29;21.50;99.90
18577;DHT22;9418;52.694;13.294;2022-08-18T01:38:57;21.40;99.90
18577;DHT22;9418;52.694;13.294;2022-08-18T01:41:25;21.40;99.90
18577;DHT22;9418;52.694;13.294;2022-08-18T01:43:52;21.30;99.90
18577;DHT22;9418;52.694;13.294;2022-08-18T01:46:19;21.30;99.90
18577;DHT22;9418;52.694;13.294;2022-08-18T01:48:46;21.20;99.90
18577;DHT22;9418;52.694;13.294;2022-08-18T01:51:14;21.20;99.90
18577;DHT22;9418;52.694;13.294;2022-08-18T01:53:41;21.20;99.90
18577;DHT22;9418;52.694;13.294;2022-08-18T01:56:09;21.10;99.90
18577;DHT22;9418;52.694;13.294;2022-08-18T01:58:36;21.10;99.90
18577;DHT22;9418;52.694;13.294;2022-08-18T02:01:03;21.00;99.90
18577;DHT22;9418;52.694;13.294;2022-08-18T02:03:33;21.00;99.90
18577;DHT22;9418;52.694;13.294;2022-08-18T02:06:02;20.90;99.90
18577;DHT22;9418;52.694;13.294;2022-08-18T02:08:29;20.90;99.90
18577;DHT22;9418;52.694;13.294;2022-08-18T02:10:56;20.90;99.90
18577;DHT22;9418;52.694;13.294;2022-08-18T02:13:25;20.80;99.90
18577;DHT22;9418;52.694;13.294;2022-08-18T02:15:52;20.80;99.90
18577;DHT22;9418;52.694;13.294;2022-08-18T02:18:23;20.70;91.20
18577;DHT22;9418;52.694;13.294;2022-08-18T02:20:52;20.60;86.60
18577;DHT22;9418;52.694;13.294;2022-08-18T02:23:19;20.60;88.40
18577;DHT22;9418;52.694;13.294;2022-08-18T02:25:45;20.60;88.40
18577;DHT22;9418;52.694;13.294;2022-08-18T02:28:12;20.60;82.80
18577;DHT22;9418;52.694;13.294;2022-08-18T02:30:40;20.60;85.50
18577;DHT22;9418;52.694;13.294;2022-08-18T02:33:08;20.50;83.80
18577;DHT22;9418;52.694;13.294;2022-08-18T02:35:35;20.40;85.20
18577;DHT22;9418;52.694;13.294;2022-08-18T02:38:04;20.40;83.10
18577;DHT22;9418;52.694;13.294;2022-08-18T02:40:31;20.40;85.00
18577;DHT22;9418;52.694;13.294;2022-08-18T02:42:58;20.40;87.20
18577;DHT22;9418;52.694;13.294;2022-08-18T02:45:25;20.40;86.90
18577;DHT22;9418;52.694;13.294;2022-08-18T02:47:54;20.40;84.10
18577;DHT22;9418;52.694;13.294;2022-08-18T02:50:22;20.30;83.00
18577;DHT22;9418;52.694;13.294;2022-08-18T02:52:49;20.20;86.60
18577;DHT22;9418;52.694;13.294;2022-08-18T02:55:16;20.20;83.10
18577;DHT22;9418;52.694;13.294;2022-08-18T02:57:43;20.20;82.70
18577;DHT22;9418;52.694;13.294;2022-08-18T03:00:12;20.20;79.40
18577;DHT22;9418;52.694;13.294;2022-08-18T03:02:43;20.10;79.00
18577;DHT22;9418;52.694;13.294;2022-08-18T03:05:11;20.10;71.00
18577;DHT22;9418;52.694;13.294;2022-08-18T03:07:38;20.00;52.20
18577;DHT22;9418;52.694;13.294;2022-08-18T03:10:06;20.00;58.00
18577;DHT22;9418;52.694;13.294;2022-08-18T03:12:32;20.00;56.00
18577;DHT22;9418;52.694;13.294;2022-08-18T03:14:59;19.90;58.20
18577;DHT22;9418;52.694;13.294;2022-08-18T03:17:28;19.90;59.00
18577;DHT22;9418;52.694;13.294;2022-08-18T03:19:56;19.90;57.60
18577;DHT22;9418;52.694;13.294;2022-08-18T03:22:23;19.80;57.40
18577;DHT22;9418;52.694;13.294;2022-08-18T03:24:50;19.70;48.80
18577;DHT22;9418;52.694;13.294;2022-08-18T03:27:17;19.70;45.40
18577;DHT22;9418;52.694;13.294;2022-08-18T03:29:43;19.70;46.40
18577;DHT22;9418;52.694;13.294;2022-08-18T03:32:10;19.70;42.90
18577;DHT22;9418;52.694;13.294;2022-08-18T03:34:36;19.60;39.90
18577;DHT22;9418;52.694;13.294;2022-08-18T03:37:03;19.60;33.30
18577;DHT22;9418;52.694;13.294;2022-08-18T03:39:31;19.50;34.60
18577;DHT22;9418;52.694;13.294;2022-08-18T03:41:58;19.50;23.50
18577;DHT22;9418;52.694;13.294;2022-08-18T03:44:25;19.50;21.00
18577;DHT22;9418;52.694;13.294;2022-08-18T03:46:55;19.50;22.40
18577;DHT22;9418;52.694;13.294;2022-08-18T03:49:22;19.40;20.90
18577;DHT22;9418;52.694;13.294;2022-08-18T03:51:50;19.30;99.90
18577;DHT22;9418;52.694;13.294;2022-08-18T03:54:17;19.40;99.90
18577;DHT22;9418;52.694;13.294;2022-08-18T03:56:46;19.40;99.90
18577;DHT22;9418;52.694;13.294;2022-08-18T03:59:15;19.40;99.90
18577;DHT22;9418;52.694;13.294;2022-08-18T04:01:43;19.30;99.90
18577;DHT22;9418;52.694;13.294;2022-08-18T04:04:12;19.30;99.90
18577;DHT22;9418;52.694;13.294;2022-08-18T04:06:42;19.30;99.90
18577;DHT22;9418;52.694;13.294;2022-08-18T04:09:11;19.30;99.90
18577;DHT22;9418;52.694;13.294;2022-08-18T04:11:39;19.20;99.90
18577;DHT22;9418;52.694;13.294;2022-08-18T04:14:09;19.30;99.90
18577;DHT22;9418;52.694;13.294;2022-08-18T04:16:37;19.20;99.90
18577;DHT22;9418;52.694;13.294;2022-08-18T04:19:04;19.20;99.90
18577;DHT22;9418;52.694;13.294;2022-08-18T04:21:31;19.30;99.90
18577;DHT22;9418;52.694;13.294;2022-08-18T04:23:59;19.30;99.90
18577;DHT22;9418;52.694;13.294;2022-08-18T04:26:29;19.30;99.90
18577;DHT22;9418;52.694;13.294;2022-08-18T04:28:57;19.30;99.90
18577;DHT22;9418;52.694;13.294;2022-08-18T04:31:27;19.30;99.90
18577;DHT22;9418;52.694;13.294;2022-08-18T04:33:54;19.30;99.90
18577;DHT22;9418;52.694;13.294;2022-08-18T04:36:21;19.30;99.90
18577;DHT22;9418;52.694;13.294;2022-08-18T04:38:48;19.30;99.90
18577;DHT22;9418;52.694;13.294;2022-08-18T04:41:15;19.30;99.90
18577;DHT22;9418;52.694;13.294;2022-08-18T04:43:42;19.30;99.90
18577;DHT22;9418;52.694;13.294;2022-08-18T04:46:09;19.30;99.90
18577;DHT22;9418;52.694;13.294;2022-08-18T04:48:38;19.40;99.90
18577;DHT22;9418;52.694;13.294;2022-08-18T04:51:07;19.40;99.90
18577;DHT22;9418;52.694;13.294;2022-08-18T04:53:35;19.50;99.90
18577;DHT22;9418;52.694;13.294;2022-08-18T04:56:13;19.50;99.90
18577;DHT22;9418;52.694;13.294;2022-08-18T04:58:40;19.60;99.90
18577;DHT22;9418;52.694;13.294;2022-08-18T05:01:06;19.60;99.90
18577;DHT22;9418;52.694;13.294;2022-08-18T05:03:34;19.60;99.90
18577;DHT22;9418;52.694;13.294;2022-08-18T05:06:04;19.60;99.90
18577;DHT22;9418;52.694;13.294;2022-08-18T05:08:32;19.70;99.90
18577;DHT22;9418;52.694;13.294;2022-08-18T05:10:58;19.80;99.90
18577;DHT22;9418;52.694;13.294;2022-08-18T05:13:25;19.80;84.40
18577;DHT22;9418;52.694;13.294;2022-08-18T05:15:52;19.90;78.90
18577;DHT22;9418;52.694;13.294;2022-08-18T05:18:19;20.00;99.90
18577;DHT22;9418;52.694;13.294;2022-08-18T05:20:49;20.00;20.50
18577;DHT22;9418;52.694;13.294;2022-08-18T05:23:17;20.10;20.20
18577;DHT22;9418;52.694;13.294;2022-08-18T05:25:44;20.10;25.60
18577;DHT22;9418;52.694;13.294;2022-08-18T05:28:10;20.20;25.60
18577;DHT22;9418;52.694;13.294;2022-08-18T05:30:38;20.30;26.80
18577;DHT22;9418;52.694;13.294;2022-08-18T05:33:04;20.30;32.40
18577;DHT22;9418;52.694;13.294;2022-08-18T05:35:35;20.40;39.90
18577;DHT22;9418;52.694;13.294;2022-08-18T05:38:12;20.40;46.60
18577;DHT22;9418;52.694;13.294;2022-08-18T05:40:42;20.50;48.10
18577;DHT22;9418;52.694;13.294;2022-08-18T05:43:12;20.50;50.20
18577;DHT22;9418;52.694;13.294;2022-08-18T05:45:40;20.60;50.30
18577;DHT22;9418;52.694;13.294;2022-08-18T05:48:08;20.60;58.20
18577;DHT22;9418;52.694;13.294;2022-08-18T05:50:36;20.70;66.60
18577;DHT22;9418;52.694;13.294;2022-08-18T05:53:05;20.80;67.80
18577;DHT22;9418;52.694;13.294;2022-08-18T05:55:37;20.90;69.30
18577;DHT22;9418;52.694;13.294;2022-08-18T05:58:23;20.90;73.10
18577;DHT22;9418;52.694;13.294;2022-08-18T06:00:55;21.00;76.00
18577;DHT22;9418;52.694;13.294;2022-08-18T06:03:26;21.00;78.20
18577;DHT22;9418;52.694;13.294;2022-08-18T06:05:58;21.00;79.30
18577;DHT22;9418;52.694;13.294;2022-08-18T06:08:29;21.10;77.70
18577;DHT22;9418;52.694;13.294;2022-08-18T06:10:58;21.20;74.70
18577;DHT22;9418;52.694;13.294;2022-08-18T06:13:26;21.20;90.90
18577;DHT22;9418;52.694;13.294;2022-08-18T06:15:57;21.30;89.70
18577;DHT22;9418;52.694;13.294;2022-08-18T06:18:36;21.30;91.50
18577;DHT22;9418;52.694;13.294;2022-08-18T06:21:14;21.40;91.30
18577;DHT22;9418;52.694;13.294;2022-08-18T06:23:55;21.40;87.90
18577;DHT22;9418;52.694;13.294;2022-08-18T06:26:30;21.50;89.00
18577;DHT22;9418;52.694;13.294;2022-08-18T06:29:07;21.60;93.80
18577;DHT22;9418;52.694;13.294;2022-08-18T06:31:44;21.60;99.90
18577;DHT22;9418;52.694;13.294;2022-08-18T06:34:24;21.70;99.90
18577;DHT22;9418;52.694;13.294;2022-08-18T06:36:56;21.80;99.90
18577;DHT22;9418;52.694;13.294;2022-08-18T06:39:29;21.90;99.90
18577;DHT22;9418;52.694;13.294;2022-08-18T06:41:57;22.00;99.90
18577;DHT22;9418;52.694;13.294;2022-08-18T06:44:31;22.00;99.90
18577;DHT22;9418;52.694;13.294;2022-08-18T06:47:03;22.10;99.90
18577;DHT22;9418;52.694;13.294;2022-08-18T06:49:38;22.10;99.90
18577;DHT22;9418;52.694;13.294;2022-08-18T06:52:19;22.10;99.90
18577;DHT22;9418;52.694;13.294;2022-08-18T06:54:46;22.20;99.90
18577;DHT22;9418;52.694;13.294;2022-08-18T06:57:23;22.30;99.90
18577;DHT22;9418;52.694;13.294;2022-08-18T06:59:56;22.30;99.90
18577;DHT22;9418;52.694;13.294;2022-08-18T07:02:30;22.30;99.90
18577;DHT22;9418;52.694;13.294;2022-08-18T07:05:01;22.40;99.90
18577;DHT22;9418;52.694;13.294;2022-08-18T07:07:32;22.50;99.90
18577;DHT22;9418;52.694;13.294;2022-08-18T07:10:01;22.50;99.90
18577;DHT22;9418;52.694;13.294;2022-08-18T07:12:28;22.50;99.90
18577;DHT22;9418;52.694;13.294;2022-08-18T07:14:59;22.60;99.90
18577;DHT22;9418;52.694;13.294;2022-08-18T07:17:29;22.70;99.90
18577;DHT22;9418;52.694;13.294;2022-08-18T07:20:00;22.80;99.90
18577;DHT22;9418;52.694;13.294;2022-08-18T07:22:28;22.80;99.90
18577;DHT22;9418;52.694;13.294;2022-08-18T07:24:56;22.90;99.90
18577;DHT22;9418;52.694;13.294;2022-08-18T07:27:41;23.00;99.90
18577;DHT22;9418;52.694;13.294;2022-08-18T07:30:12;23.00;99.90
18577;DHT22;9418;52.694;13.294;2022-08-18T07:32:43;23.00;99.90
18577;DHT22;9418;52.694;13.294;2022-08-18T07:35:13;23.10;99.90
18577;DHT22;9418;52.694;13.294;2022-08-18T07:37:45;23.10;99.90
18577;DHT22;9418;52.694;13.294;2022-08-18T07:40:21;23.10;99.90
18577;DHT22;9418;52.694;13.294;2022-08-18T07:42:53;23.20;99.90
18577;DHT22;9418;52.694;13.294;2022-08-18T07:45:28;23.30;99.90
18577;DHT22;9418;52.694;13.294;2022-08-18T07:48:01;23.30;99.90
18577;DHT22;9418;52.694;13.294;2022-08-18T07:50:32;23.30;99.90
18577;DHT22;9418;52.694;13.294;2022-08-18T07:53:08;23.40;99.90
18577;DHT22;9418;52.694;13.294;2022-08-18T07:55:39;23.40;99.90
18577;DHT22;9418;52.694;13.294;2022-08-18T07:58:17;23.50;99.90
18577;DHT22;9418;52.694;13.294;2022-08-18T08:00:52;23.60;99.90
18577;DHT22;9418;52.694;13.294;2022-08-18T08:03:29;23.60;99.90
18577;DHT22;9418;52.694;13.294;2022-08-18T08:06:02;23.70;99.90
18577;DHT22;9418;52.694;13.294;2022-08-18T08:08:36;23.70;99.90
18577;DHT22;9418;52.694;13.294;2022-08-18T08:11:13;23.80;99.90
18577;DHT22;9418;52.694;13.294;2022-08-18T08:13:51;23.80;99.90
18577;DHT22;9418;52.694;13.294;2022-08-18T08:16:31;23.90;99.90
18577;DHT22;9418;52.694;13.294;2022-08-18T08:19:07;23.90;99.90
18577;DHT22;9418;52.694;13.294;2022-08-18T08:21:41;24.00;99.90
18577;DHT22;9418;52.694;13.294;2022-08-18T08:24:12;24.00;99.90
18577;DHT22;9418;52.694;13.294;2022-08-18T08:26:50;24.10;25.80
18577;DHT22;9418;52.694;13.294;2022-08-18T08:29:29;24.10;28.30
18577;DHT22;9418;52.694;13.294;2022-08-18T08:32:04;24.10;33.30
18577;DHT22;9418;52.694;13.294;2022-08-18T08:34:36;24.10;40.00
18577;DHT22;9418;52.694;13.294;2022-08-18T08:37:09;24.10;47.60
18577;DHT22;9418;52.694;13.294;2022-08-18T08:39:41;24.20;54.80
18577;DHT22;9418;52.694;13.294;2022-08-18T08:42:14;24.30;55.60
18577;DHT22;9418;52.694;13.294;2022-08-18T08:44:45;24.30;49.00
18577;DHT22;9418;52.694;13.294;2022-08-18T08:47:19;24.30;43.30
18577;DHT22;9418;52.694;13.294;2022-08-18T08:49:51;24.40;43.90
18577;DHT22;9418;52.694;13.294;2022-08-18T08:52:23;24.40;39.80
18577;DHT22;9418;52.694;13.294;2022-08-18T08:54:53;24.40;48.10
18577;DHT22;9418;52.694;13.294;2022-08-18T08:57:24;24.50;44.70
18577;DHT22;9418;52.694;13.294;2022-08-18T08:59:54;24.50;47.60
18577;DHT22;9418;52.694;13.294;2022-08-18T09:02:31;24.50;54.40
18577;DHT22;9418;52.694;13.294;2022-08-18T09:05:06;24.60;60.70
18577;DHT22;9418;52.694;13.294;2022-08-18T09:07:51;24.60;59.20
18577;DHT22;9418;52.694;13.294;2022-08-18T09:10:41;24.70;63.90
18577;DHT22;9418;52.694;13.294;2022-08-18T09:13:27;24.70;61.20
18577;DHT22;9418;52.694;13.294;2022-08-18T09:16:11;24.80;56.30
18577;DHT22;9418;52.694;13.294;2022-08-18T09:18:53;24.90;55.10
18577;DHT22;9418;52.694;13.294;2022-08-18T09:21:36;24.90;70.90
18577;DHT22;9418;52.694;13.294;2022-08-18T09:24:08;25.00;61.60
18577;DHT22;9418;52.694;13.294;2022-08-18T09:26:41;25.10;52.40
18577;DHT22;9418;52.694;13.294;2022-08-18T09:29:21;25.30;54.80
18577;DHT22;9418;52.694;13.294;2022-08-18T09:35:00;25.60;62.00
18577;DHT22;9418;52.694;13.294;2022-08-18T09:37:41;25.70;67.80
18577;DHT22;9418;52.694;13.294;2022-08-18T09:40:13;25.90;74.00
18577;DHT22;9418;52.694;13.294;2022-08-18T09:43:08;26.00;78.80
18577;DHT22;9418;52.694;13.294;2022-08-18T09:45:51;26.20;95.90
18577;DHT22;9418;52.694;13.294;2022-08-18T09:48:27;26.20;86.60
18577;DHT22;9418;52.694;13.294;2022-08-18T09:54:16;26.20;91.30
18577;DHT22;9418;52.694;13.294;2022-08-18T09:57:16;26.20;85.20
18577;DHT22;9418;52.694;13.294;2022-08-18T10:03:10;26.20;76.00
18577;DHT22;9418;52.694;13.294;2022-08-18T10:05:39;26.20;79.20
18577;DHT22;9418;52.694;13.294;2022-08-18T10:11:22;26.50;84.20
18577;DHT22;9418;52.694;13.294;2022-08-18T10:14:05;26.70;87.50
18577;DHT22;9418;52.694;13.294;2022-08-18T10:16:44;26.90;95.70
18577;DHT22;9418;52.694;13.294;2022-08-18T10:19:17;27.10;86.60
18577;DHT22;9418;52.694;13.294;2022-08-18T10:22:03;27.20;89.50
18577;DHT22;9418;52.694;13.294;2022-08-18T10:24:33;27.30;87.30
18577;DHT22;9418;52.694;13.294;2022-08-18T10:27:04;27.30;98.60
18577;DHT22;9418;52.694;13.294;2022-08-18T10:29:47;27.30;99.90
18577;DHT22;9418;52.694;13.294;2022-08-18T10:35:05;27.40;99.90
18577;DHT22;9418;52.694;13.294;2022-08-18T10:37:53;27.50;99.90
18577;DHT22;9418;52.694;13.294;2022-08-18T10:40:21;27.60;99.90
18577;DHT22;9418;52.694;13.294;2022-08-18T10:42:52;27.80;99.90
18577;DHT22;9418;52.694;13.294;2022-08-18T10:45:25;27.90;99.90
18577;DHT22;9418;52.694;13.294;2022-08-18T10:48:09;28.20;99.90
18577;DHT22;9418;52.694;13.294;2022-08-18T10:50:40;28.40;99.90
18577;DHT22;9418;52.694;13.294;2022-08-18T10:53:14;28.60;99.90
18577;DHT22;9418;52.694;13.294;2022-08-18T10:55:51;28.60;99.90
18577;DHT22;9418;52.694;13.294;2022-08-18T11:01:56;28.40;99.90
18577;DHT22;9418;52.694;13.294;2022-08-18T11:04:29;28.30;99.90
18577;DHT22;9418;52.694;13.294;2022-08-18T11:07:06;28.20;99.90
18577;DHT22;9418;52.694;13.294;2022-08-18T11:09:37;28.20;99.90
18577;DHT22;9418;52.694;13.294;2022-08-18T11:12:05;28.20;99.90
18577;DHT22;9418;52.694;13.294;2022-08-18T11:14:54;28.40;99.90
18577;DHT22;9418;52.694;13.294;2022-08-18T11:17:29;28.60;99.90
18577;DHT22;9418;52.694;13.294;2022-08-18T11:19:59;28.90;99.90
18577;DHT22;9418;52.694;13.294;2022-08-18T11:22:28;29.00;99.90
18577;DHT22;9418;52.694;13.294;2022-08-18T11:24:57;29.30;99.90
18577;DHT22;9418;52.694;13.294;2022-08-18T11:27:25;29.40;99.90
18577;DHT22;9418;52.694;13.294;2022-08-18T11:29:53;29.30;99.90
18577;DHT22;9418;52.694;13.294;2022-08-18T11:32:23;29.30;99.90
18577;DHT22;9418;52.694;13.294;2022-08-18T11:35:00;29.30;99.90
18577;DHT22;9418;52.694;13.294;2022-08-18T11:37:31;29.30;99.90
18577;DHT22;9418;52.694;13.294;2022-08-18T11:40:02;29.40;99.90
18577;DHT22;9418;52.694;13.294;2022-08-18T11:42:32;29.50;99.90
18577;DHT22;9418;52.694;13.294;2022-08-18T11:45:13;29.60;99.90
18577;DHT22;9418;52.694;13.294;2022-08-18T11:47:59;29.70;99.90
18577;DHT22;9418;52.694;13.294;2022-08-18T11:50:28;29.90;99.90
18577;DHT22;9418;52.694;13.294;2022-08-18T11:52:55;30.10;99.90
18577;DHT22;9418;52.694;13.294;2022-08-18T11:55:30;30.20;99.90
18577;DHT22;9418;52.694;13.294;2022-08-18T11:57:58;30.30;99.90
18577;DHT22;9418;52.694;13.294;2022-08-18T12:00:41;30.40;99.90
18577;DHT22;9418;52.694;13.294;2022-08-18T12:03:13;30.40;99.90
18577;DHT22;9418;52.694;13.294;2022-08-18T12:05:44;30.50;99.90
18577;DHT22;9418;52.694;13.294;2022-08-18T12:08:19;30.70;99.90
18577;DHT22;9418;52.694;13.294;2022-08-18T12:11:01;30.80;99.90
18577;DHT22;9418;52.694;13.294;2022-08-18T12:13:28;30.80;99.90
18577;DHT22;9418;52.694;13.294;2022-08-18T12:16:11;30.80;99.90
18577;DHT22;9418;52.694;13.294;2022-08-18T12:18:38;30.90;99.90
18577;DHT22;9418;52.694;13.294;2022-08-18T12:21:05;30.90;99.90
18577;DHT22;9418;52.694;13.294;2022-08-18T12:23:32;30.90;99.90
18577;DHT22;9418;52.694;13.294;2022-08-18T12:26:00;31.00;99.90
18577;DHT22;9418;52.694;13.294;2022-08-18T12:28:27;31.20;99.90
18577;DHT22;9418;52.694;13.294;2022-08-18T12:30:53;31.30;99.90
18577;DHT22;9418;52.694;13.294;2022-08-18T12:33:20;31.20;99.90
18577;DHT22;9418;52.694;13.294;2022-08-18T12:35:47;31.10;99.90
18577;DHT22;9418;52.694;13.294;2022-08-18T12:38:13;31.00;99.90
18577;DHT22;9418;52.694;13.294;2022-08-18T12:40:42;31.00;99.90
18577;DHT22;9418;52.694;13.294;2022-08-18T12:43:10;31.10;99.90
18577;DHT22;9418;52.694;13.294;2022-08-18T12:45:37;31.20;99.90
18577;DHT22;9418;52.694;13.294;2022-08-18T12:48:04;31.30;99.90
18577;DHT22;9418;52.694;13.294;2022-08-18T12:50:31;31.40;99.90
18577;DHT22;9418;52.694;13.294;2022-08-18T12:52:58;31.60;99.90
18577;DHT22;9418;52.694;13.294;2022-08-18T12:55:25;31.70;99.90
18577;DHT22;9418;52.694;13.294;2022-08-18T12:57:52;31.60;99.90
18577;DHT22;9418;52.694;13.294;2022-08-18T13:00:20;31.40;99.90
18577;DHT22;9418;52.694;13.294;2022-08-18T13:02:46;31.30;99.90
18577;DHT22;9418;52.694;13.294;2022-08-18T13:05:13;31.30;99.90
18577;DHT22;9418;52.694;13.294;2022-08-18T13:07:39;31.20;99.90
18577;DHT22;9418;52.694;13.294;2022-08-18T13:10:08;31.20;99.90
18577;DHT22;9418;52.694;13.294;2022-08-18T13:12:35;31.20;99.90
18577;DHT22;9418;52.694;13.294;2022-08-18T13:15:01;31.10;99.90
18577;DHT22;9418;52.694;13.294;2022-08-18T13:17:31;31.20;99.90
18577;DHT22;9418;52.694;13.294;2022-08-18T13:19:58;31.40;99.90
18577;DHT22;9418;52.694;13.294;2022-08-18T13:22:24;31.60;99.90
18577;DHT22;9418;52.694;13.294;2022-08-18T13:24:51;31.70;99.90
18577;DHT22;9418;52.694;13.294;2022-08-18T13:27:19;31.70;99.90
18577;DHT22;9418;52.694;13.294;2022-08-18T13:29:47;31.70;99.90
18577;DHT22;9418;52.694;13.294;2022-08-18T13:32:13;31.70;99.90
18577;DHT22;9418;52.694;13.294;2022-08-18T13:34:41;31.60;99.90
18577;DHT22;9418;52.694;13.294;2022-08-18T13:37:08;31.50;99.90
18577;DHT22;9418;52.694;13.294;2022-08-18T13:39:35;31.40;99.90
18577;DHT22;9418;52.694;13.294;2022-08-18T13:42:02;31.30;99.90
18577;DHT22;9418;52.694;13.294;2022-08-18T13:44:29;31.30;99.90
18577;DHT22;9418;52.694;13.294;2022-08-18T13:46:56;31.20;99.90
18577;DHT22;9418;52.694;13.294;2022-08-18T13:49:23;31.20;99.90
18577;DHT22;9418;52.694;13.294;2022-08-18T13:51:53;31.20;99.90
18577;DHT22;9418;52.694;13.294;2022-08-18T13:54:25;31.20;99.90
18577;DHT22;9418;52.694;13.294;2022-08-18T13:56:53;31.40;99.90
18577;DHT22;9418;52.694;13.294;2022-08-18T13:59:21;31.50;99.90
18577;DHT22;9418;52.694;13.294;2022-08-18T14:01:49;31.70;99.90
18577;DHT22;9418;52.694;13.294;2022-08-18T14:04:16;31.90;99.90
18577;DHT22;9418;52.694;13.294;2022-08-18T14:06:43;32.00;99.90
18577;DHT22;9418;52.694;13.294;2022-08-18T14:09:10;32.10;99.90
18577;DHT22;9418;52.694;13.294;2022-08-18T14:11:38;32.10;99.90
18577;DHT22;9418;52.694;13.294;2022-08-18T14:14:05;32.10;99.90
18577;DHT22;9418;52.694;13.294;2022-08-18T14:16:32;32.00;99.90
18577;DHT22;9418;52.694;13.294;2022-08-18T14:18:59;32.00;99.90
18577;DHT22;9418;52.694;13.294;2022-08-18T14:21:45;32.00;99.90
18577;DHT22;9418;52.694;13.294;2022-08-18T14:24:31;32.00;99.90
18577;DHT22;9418;52.694;13.294;2022-08-18T14:27:16;32.00;99.90
18577;DHT22;9418;52.694;13.294;2022-08-18T14:29:42;32.00;99.90
18577;DHT22;9418;52.694;13.294;2022-08-18T14:32:11;32.00;99.90
18577;DHT22;9418;52.694;13.294;2022-08-18T14:34:38;32.00;99.90
18577;DHT22;9418;52.694;13.294;2022-08-18T14:37:05;32.00;99.90
18577;DHT22;9418;52.694;13.294;2022-08-18T14:39:33;32.00;99.90
18577;DHT22;9418;52.694;13.294;2022-08-18T14:41:59;31.90;99.90
18577;DHT22;9418;52.694;13.294;2022-08-18T14:44:27;31.70;99.90
18577;DHT22;9418;52.694;13.294;2022-08-18T14:46:54;31.50;99.90
18577;DHT22;9418;52.694;13.294;2022-08-18T14:49:22;31.10;99.90
18577;DHT22;9418;52.694;13.294;2022-08-18T14:51:48;30.50;99.90
18577;DHT22;9418;52.694;13.294;2022-08-18T14:54:15;30.10;99.90
18577;DHT22;9418;52.694;13.294;2022-08-18T14:56:43;29.90;99.90
18577;DHT22;9418;52.694;13.294;2022-08-18T14:59:09;29.50;99.90
18577;DHT22;9418;52.694;13.294;2022-08-18T15:01:36;29.10;99.90
18577;DHT22;9418;52.694;13.294;2022-08-18T15:04:04;29.10;99.90
18577;DHT22;9418;52.694;13.294;2022-08-18T15:06:31;28.90;99.90
18577;DHT22;9418;52.694;13.294;2022-08-18T15:08:57;28.80;99.90
18577;DHT22;9418;52.694;13.294;2022-08-18T15:11:24;28.70;99.90
18577;DHT22;9418;52.694;13.294;2022-08-18T15:13:53;28.70;99.90
18577;DHT22;9418;52.694;13.294;2022-08-18T15:16:20;28.60;99.90
18577;DHT22;9418;52.694;13.294;2022-08-18T15:18:47;28.50;99.90
18577;DHT22;9418;52.694;13.294;2022-08-18T15:21:14;28.50;99.90
18577;DHT22;9418;52.694;13.294;2022-08-18T15:23:59;28.50;99.90
18577;DHT22;9418;52.694;13.294;2022-08-18T15:26:43;28.50;99.90
18577;DHT22;9418;52.694;13.294;2022-08-18T15:29:11;28.40;99.90
18577;DHT22;9418;52.694;13.294;2022-08-18T15:31:38;28.40;99.90
18577;DHT22;9418;52.694;13.294;2022-08-18T15:34:05;28.40;99.90
18577;DHT22;9418;52.694;13.294;2022-08-18T15:36:31;28.40;99.90
18577;DHT22;9418;52.694;13.294;2022-08-18T15:39:00;28.50;99.90
18577;DHT22;9418;52.694;13.294;2022-08-18T15:41:32;28.40;99.90
18577;DHT22;9418;52.694;13.294;2022-08-18T15:43:59;28.40;99.90
18577;DHT22;9418;52.694;13.294;2022-08-18T15:46:31;28.40;99.90
18577;DHT22;9418;52.694;13.294;2022-08-18T15:48:58;28.40;99.90
18577;DHT22;9418;52.694;13.294;2022-08-18T15:51:24;28.40;99.90
18577;DHT22;9418;52.694;13.294;2022-08-18T15:53:51;28.40;99.90
18577;DHT22;9418;52.694;13.294;2022-08-18T15:56:20;28.50;99.90
18577;DHT22;9418;52.694;13.294;2022-08-18T15:58:47;28.50;99.90
18577;DHT22;9418;52.694;13.294;2022-08-18T16:01:15;28.50;99.90
18577;DHT22;9418;52.694;13.294;2022-08-18T16:03:43;28.50;99.90
18577;DHT22;9418;52.694;13.294;2022-08-18T16:06:12;28.40;99.90
18577;DHT22;9418;52.694;13.294;2022-08-18T16:08:39;28.40;99.90
18577;DHT22;9418;52.694;13.294;2022-08-18T16:11:08;28.40;99.90